Biscoe, North Carolina
Current Conditions -  °F | °C
As of 8:15 PM on Sunday 21 Dec 2014 (Local Time) from KHBI Reporting Station
Overcast Overcast  
Wind Chill: 45°   Ceiling: 3900
Heat Index: 45°   Visibility: 10mi
Dew Point: 36°   Wind: 3mph
Humidity: 72%   Direction: 50°NE
Pressure: 30.24"   Gusts: NA
Location:  35.36°N, 79.78°W
Report Text: KHBI 220115Z AUTO 05003KT 10SM OVC039 07/02 A3024 RMK AO2 T00700023
Loading
Personal Weather Stations






























Interactive Weather Map New forecast layout! Learn more

10-Day Weather Forecast

Advertisements
Track Severe Weather on mobile